^^
Station Historical Data
Daily Summary for December 28, 2017 Units:  Both    English   Metric
« Previous Day
Next Day »
Daily Weekly Monthly Yearly Custom
  High: Low: Average:
Temperature: TemperatureF °F /  -17.8 °C 75.9 °F /  24.4 °C 81 °F /  27.2 °C
Dew Point: DewpointF °F /  -17.8 °C 44.6 °F /  7 °C 49.1 °F /  9.5 °C
Humidity: Humidity% 26% 33%
Wind Speed: WindSpeedMPHmph /  0km/h - 5.5mph /  8.9km/h
Wind Gust: WindSpeedGustMPHmph /  0km/h - -
Wind- - ESE
Pressure: PressureIn in /  0 hPa 30.01 in /  1016.1 hPa -
Precipitation: 0.00 in /  0 mm    
Historical Graphs
 
 
Tabular Data for December 28, 2017
Time Temperature Dew Point Pressure Wind Wind Speed Wind Gust Humidity Rainfall Rate (Hourly) solar Conditions
TemperatureF °F /  -17.8 °C DewpointF °F /  -17.8 °C PressureInin /  0hPa Calm     Humidity% HourlyPrecipInin /  0mm SoftwareType W/m2 Conditions
09:07 75.9 °F /  24.4 °C 51.8 °F /  11 °C 30.13in /  1020.2hPa NE 4.9mph /  7.9km/h 7.0mph /  11.3km/h 43% 0.00in /  0mm meteobridge W/m2
09:13 76.3 °F /  24.6 °C 52.2 °F /  11.2 °C 30.12in /  1019.9hPa NE 6.0mph /  9.7km/h 8.0mph /  12.9km/h 43% 0.00in /  0mm meteobridge W/m2
09:19 76.5 °F /  24.7 °C 51.1 °F /  10.6 °C 30.12in /  1019.9hPa NE 4.9mph /  7.9km/h 10.0mph /  16.1km/h 41% 0.00in /  0mm meteobridge W/m2
09:25 76.5 °F /  24.7 °C 49.6 °F /  9.8 °C 30.12in /  1019.9hPa ENE 6.0mph /  9.7km/h 10.0mph /  16.1km/h 39% 0.00in /  0mm meteobridge W/m2
09:31 76.8 °F /  24.9 °C 51.3 °F /  10.7 °C 30.12in /  1019.9hPa NNE 6.9mph /  11.1km/h 7.0mph /  11.3km/h 41% 0.00in /  0mm meteobridge W/m2
09:35 76.6 °F /  24.8 °C 50.5 °F /  10.3 °C 30.12in /  1019.9hPa East 2.9mph /  4.7km/h 6.0mph /  9.7km/h 40% 0.00in /  0mm meteobridge W/m2
09:41 77.0 °F /  25 °C 52.2 °F /  11.2 °C 30.12in /  1019.9hPa NE 2.9mph /  4.7km/h 7.0mph /  11.3km/h 42% 0.00in /  0mm meteobridge W/m2
09:48 77.7 °F /  25.4 °C 52.2 °F /  11.2 °C 30.12in /  1019.9hPa North 13.0mph /  20.9km/h 13.0mph /  20.9km/h 41% 0.00in /  0mm meteobridge W/m2
09:54 77.4 °F /  25.2 °C 51.1 °F /  10.6 °C 30.12in /  1019.9hPa NNE 6.9mph /  11.1km/h 9.0mph /  14.5km/h 40% 0.00in /  0mm meteobridge W/m2
10:02 78.3 °F /  25.7 °C 52.7 °F /  11.5 °C 30.12in /  1019.9hPa NE 4.0mph /  6.4km/h 10.0mph /  16.1km/h 41% 0.00in /  0mm meteobridge W/m2
10:14 78.6 °F /  25.9 °C 52.3 °F /  11.3 °C 30.11in /  1019.5hPa North 6.9mph /  11.1km/h 13.0mph /  20.9km/h 40% 0.00in /  0mm meteobridge W/m2
10:20 78.6 °F /  25.9 °C 52.3 °F /  11.3 °C 30.11in /  1019.5hPa Calm   5.0mph /  8km/h 40% 0.00in /  0mm meteobridge W/m2
10:26 79.9 °F /  26.6 °C 52.7 °F /  11.5 °C 30.11in /  1019.5hPa North 4.9mph /  7.9km/h 11.0mph /  17.7km/h 39% 0.00in /  0mm meteobridge W/m2
10:33 79.9 °F /  26.6 °C 52.0 °F /  11.1 °C 30.11in /  1019.5hPa NNE 10.1mph /  16.3km/h 13.0mph /  20.9km/h 38% 0.00in /  0mm meteobridge W/m2
10:39 79.9 °F /  26.6 °C 52.7 °F /  11.5 °C 30.11in /  1019.5hPa NNE 8.1mph /  13km/h 14.0mph /  22.5km/h 39% 0.00in /  0mm meteobridge W/m2
10:45 79.3 °F /  26.3 °C 51.4 °F /  10.8 °C 30.12in /  1019.9hPa ENE 4.0mph /  6.4km/h 12.0mph /  19.3km/h 38% 0.00in /  0mm meteobridge W/m2
10:51 79.0 °F /  26.1 °C 50.5 °F /  10.3 °C 30.11in /  1019.5hPa East 4.0mph /  6.4km/h 9.0mph /  14.5km/h 37% 0.00in /  0mm meteobridge W/m2
10:57 79.7 °F /  26.5 °C 51.1 °F /  10.6 °C 30.12in /  1019.9hPa NE 2.0mph /  3.2km/h 9.0mph /  14.5km/h 37% 0.00in /  0mm meteobridge W/m2
11:03 79.9 °F /  26.6 °C 52.0 °F /  11.1 °C 30.11in /  1019.5hPa NNE 2.9mph /  4.7km/h 11.0mph /  17.7km/h 38% 0.00in /  0mm meteobridge W/m2
11:10 80.2 °F /  26.8 °C 53.1 °F /  11.7 °C 30.11in /  1019.5hPa NNE 6.0mph /  9.7km/h 7.0mph /  11.3km/h 39% 0.00in /  0mm meteobridge W/m2
11:16 81.3 °F /  27.4 °C 52.5 °F /  11.4 °C 30.11in /  1019.5hPa ESE 4.9mph /  7.9km/h 7.0mph /  11.3km/h 37% 0.00in /  0mm meteobridge W/m2
11:22 81.3 °F /  27.4 °C 52.5 °F /  11.4 °C 30.11in /  1019.5hPa SE 0.9mph /  1.4km/h 4.0mph /  6.4km/h 37% 0.00in /  0mm meteobridge W/m2
11:28 81.0 °F /  27.2 °C 51.4 °F /  10.8 °C 30.12in /  1019.9hPa NNE 4.0mph /  6.4km/h 9.0mph /  14.5km/h 36% 0.00in /  0mm meteobridge W/m2
11:34 81.9 °F /  27.7 °C 53.1 °F /  11.7 °C 30.11in /  1019.5hPa NE 6.9mph /  11.1km/h 13.0mph /  20.9km/h 37% 0.00in /  0mm meteobridge W/m2
11:40 81.1 °F /  27.3 °C 51.6 °F /  10.9 °C 30.11in /  1019.5hPa NE 10.1mph /  16.3km/h 16.0mph /  25.7km/h 36% 0.00in /  0mm meteobridge W/m2
11:46 81.3 °F /  27.4 °C 51.8 °F /  11 °C 30.11in /  1019.5hPa NNE 8.9mph /  14.3km/h 10.0mph /  16.1km/h 36% 0.00in /  0mm meteobridge W/m2
11:52 81.7 °F /  27.6 °C 52.2 °F /  11.2 °C 30.11in /  1019.5hPa NE 6.9mph /  11.1km/h 10.0mph /  16.1km/h 36% 0.00in /  0mm meteobridge W/m2
12:04 82.6 °F /  28.1 °C 52.2 °F /  11.2 °C 30.10in /  1019.2hPa South 2.0mph /  3.2km/h 3.0mph /  4.8km/h 35% 0.00in /  0mm meteobridge W/m2
12:11 83.5 °F /  28.6 °C 52.2 °F /  11.2 °C 30.10in /  1019.2hPa ENE 10.1mph /  16.3km/h 16.0mph /  25.7km/h 34% 0.00in /  0mm meteobridge W/m2
12:17 83.1 °F /  28.4 °C 52.7 °F /  11.5 °C 30.10in /  1019.2hPa NNE 10.1mph /  16.3km/h 17.0mph /  27.4km/h 35% 0.00in /  0mm meteobridge W/m2
12:21 82.2 °F /  27.9 °C 51.8 °F /  11 °C 30.10in /  1019.2hPa SE 2.0mph /  3.2km/h 5.0mph /  8km/h 35% 0.00in /  0mm meteobridge W/m2
12:27 82.6 °F /  28.1 °C 52.2 °F /  11.2 °C 30.10in /  1019.2hPa SSW 4.9mph /  7.9km/h 6.0mph /  9.7km/h 35% 0.00in /  0mm meteobridge W/m2
12:33 83.3 °F /  28.5 °C 52.9 °F /  11.6 °C 30.10in /  1019.2hPa North 10.1mph /  16.3km/h 16.0mph /  25.7km/h 35% 0.00in /  0mm meteobridge W/m2
12:41 83.7 °F /  28.7 °C 51.4 °F /  10.8 °C 30.10in /  1019.2hPa SSW 4.0mph /  6.4km/h 15.0mph /  24.1km/h 33% 0.00in /  0mm meteobridge W/m2
12:48 83.3 °F /  28.5 °C 51.3 °F /  10.7 °C 30.08in /  1018.5hPa SSE 4.9mph /  7.9km/h 11.0mph /  17.7km/h 33% 0.00in /  0mm meteobridge W/m2
12:54 84.2 °F /  29 °C 51.1 °F /  10.6 °C 30.08in /  1018.5hPa NNE 11.0mph /  17.7km/h 13.0mph /  20.9km/h 32% 0.00in /  0mm meteobridge W/m2
13:00 84.9 °F /  29.4 °C 50.9 °F /  10.5 °C 30.08in /  1018.5hPa Calm   7.0mph /  11.3km/h 31% 0.00in /  0mm meteobridge W/m2
13:08 84.6 °F /  29.2 °C 50.5 °F /  10.3 °C 30.09in /  1018.8hPa SSW 4.0mph /  6.4km/h 10.0mph /  16.1km/h 31% 0.00in /  0mm meteobridge W/m2
13:14 83.3 °F /  28.5 °C 51.3 °F /  10.7 °C 30.08in /  1018.5hPa SE 6.9mph /  11.1km/h 7.0mph /  11.3km/h 33% 0.00in /  0mm meteobridge W/m2
13:18 84.4 °F /  29.1 °C 51.3 °F /  10.7 °C 30.08in /  1018.5hPa NE 4.9mph /  7.9km/h 6.0mph /  9.7km/h 32% 0.00in /  0mm meteobridge W/m2
13:24 85.6 °F /  29.8 °C 51.6 °F /  10.9 °C 30.08in /  1018.5hPa NNE 10.1mph /  16.3km/h 10.1mph /  16.3km/h 31% 0.00in /  0mm meteobridge W/m2
13:30 84.2 °F /  29 °C 49.5 °F /  9.7 °C 30.08in /  1018.5hPa NE 8.1mph /  13km/h 14.0mph /  22.5km/h 30% 0.00in /  0mm meteobridge W/m2
13:32 83.7 °F /  28.7 °C 49.8 °F /  9.9 °C 30.08in /  1018.5hPa ENE 4.9mph /  7.9km/h 10.0mph /  16.1km/h 31% 0.00in /  0mm meteobridge W/m2
13:38 84.7 °F /  29.3 °C 49.8 °F /  9.9 °C 30.08in /  1018.5hPa SSE 6.9mph /  11.1km/h 11.0mph /  17.7km/h 30% 0.00in /  0mm meteobridge W/m2
13:44 85.5 °F /  29.7 °C 50.5 °F /  10.3 °C 30.07in /  1018.2hPa ESE 2.0mph /  3.2km/h 5.0mph /  8km/h 30% 0.00in /  0mm meteobridge W/m2
13:51 86.5 °F /  30.3 °C 50.5 °F /  10.3 °C 30.07in /  1018.2hPa SSE 11.0mph /  17.7km/h 11.0mph /  17.7km/h 29% 0.00in /  0mm meteobridge W/m2
13:53 86.4 °F /  30.2 °C 50.4 °F /  10.2 °C 30.06in /  1017.8hPa South 12.1mph /  19.5km/h 14.0mph /  22.5km/h 29% 0.00in /  0mm meteobridge W/m2
13:59 85.6 °F /  29.8 °C 49.8 °F /  9.9 °C 30.07in /  1018.2hPa NE 6.9mph /  11.1km/h 12.0mph /  19.3km/h 29% 0.00in /  0mm meteobridge W/m2
14:05 83.5 °F /  28.6 °C 48.7 °F /  9.3 °C 30.07in /  1018.2hPa Calm   5.0mph /  8km/h 30% 0.00in /  0mm meteobridge W/m2
14:11 82.9 °F /  28.3 °C 48.4 °F /  9.1 °C 30.06in /  1017.8hPa SE 2.0mph /  3.2km/h 6.0mph /  9.7km/h 30% 0.00in /  0mm meteobridge W/m2
14:17 82.8 °F /  28.2 °C 48.2 °F /  9 °C 30.06in /  1017.8hPa ESE 2.0mph /  3.2km/h 7.0mph /  11.3km/h 30% 0.00in /  0mm meteobridge W/m2
14:19 82.9 °F /  28.3 °C 48.4 °F /  9.1 °C 30.06in /  1017.8hPa SE 4.0mph /  6.4km/h 7.0mph /  11.3km/h 30% 0.00in /  0mm meteobridge W/m2
14:25 82.8 °F /  28.2 °C 48.2 °F /  9 °C 30.06in /  1017.8hPa SSW 0.9mph /  1.4km/h 3.0mph /  4.8km/h 30% 0.00in /  0mm meteobridge W/m2
14:32 82.8 °F /  28.2 °C 48.2 °F /  9 °C 30.06in /  1017.8hPa ENE 2.9mph /  4.7km/h 4.0mph /  6.4km/h 30% 0.00in /  0mm meteobridge W/m2
14:40 83.8 °F /  28.8 °C 48.2 °F /  9 °C 30.06in /  1017.8hPa NE 4.0mph /  6.4km/h 6.0mph /  9.7km/h 29% 0.00in /  0mm meteobridge W/m2
14:46 84.2 °F /  29 °C 48.6 °F /  9.2 °C 30.05in /  1017.5hPa NNE 2.9mph /  4.7km/h 10.0mph /  16.1km/h 29% 0.00in /  0mm meteobridge W/m2
14:52 83.8 °F /  28.8 °C 48.2 °F /  9 °C 30.05in /  1017.5hPa NNE 4.0mph /  6.4km/h 11.0mph /  17.7km/h 29% 0.00in /  0mm meteobridge W/m2
14:58 85.3 °F /  29.6 °C 48.6 °F /  9.2 °C 30.05in /  1017.5hPa North 6.9mph /  11.1km/h 7.0mph /  11.3km/h 28% 0.00in /  0mm meteobridge W/m2
15:05 85.3 °F /  29.6 °C 48.6 °F /  9.2 °C 30.05in /  1017.5hPa North 4.0mph /  6.4km/h 6.0mph /  9.7km/h 28% 0.00in /  0mm meteobridge W/m2
15:11 86.7 °F /  30.4 °C 47.7 °F /  8.7 °C 30.04in /  1017.2hPa WNW 0.9mph /  1.4km/h 6.0mph /  9.7km/h 26% 0.00in /  0mm meteobridge W/m2
15:17 88.0 °F /  31.1 °C 48.7 °F /  9.3 °C 30.04in /  1017.2hPa Calm   5.0mph /  8km/h 26% 0.00in /  0mm meteobridge W/m2
15:23 88.5 °F /  31.4 °C 49.3 °F /  9.6 °C 30.03in /  1016.8hPa Calm   7.0mph /  11.3km/h 26% 0.00in /  0mm meteobridge W/m2
15:29 87.4 °F /  30.8 °C 48.4 °F /  9.1 °C 30.03in /  1016.8hPa North 6.9mph /  11.1km/h 16.0mph /  25.7km/h 26% 0.00in /  0mm meteobridge W/m2
15:35 85.5 °F /  29.7 °C 48.6 °F /  9.2 °C 30.03in /  1016.8hPa NW 11.0mph /  17.7km/h 12.0mph /  19.3km/h 28% 0.00in /  0mm meteobridge W/m2
15:41 83.5 °F /  28.6 °C 47.8 °F /  8.8 °C 30.03in /  1016.8hPa NNW 13.0mph /  20.9km/h 18.0mph /  29km/h 29% 0.00in /  0mm meteobridge W/m2
15:47 82.8 °F /  28.2 °C 47.3 °F /  8.5 °C 30.03in /  1016.8hPa North 12.1mph /  19.5km/h 19.0mph /  30.6km/h 29% 0.00in /  0mm meteobridge W/m2
15:54 82.6 °F /  28.1 °C 47.1 °F /  8.4 °C 30.03in /  1016.8hPa North 11.0mph /  17.7km/h 16.0mph /  25.7km/h 29% 0.00in /  0mm meteobridge W/m2
16:00 82.4 °F /  28 °C 46.0 °F /  7.8 °C 30.03in /  1016.8hPa NNE 8.9mph /  14.3km/h 16.0mph /  25.7km/h 28% 0.00in /  0mm meteobridge W/m2
16:06 81.7 °F /  27.6 °C 46.4 °F /  8 °C 30.03in /  1016.8hPa SE 8.9mph /  14.3km/h 12.0mph /  19.3km/h 29% 0.00in /  0mm meteobridge W/m2
16:12 81.3 °F /  27.4 °C 46.0 °F /  7.8 °C 30.03in /  1016.8hPa SSE 12.1mph /  19.5km/h 17.0mph /  27.4km/h 29% 0.00in /  0mm meteobridge W/m2
16:18 81.0 °F /  27.2 °C 45.7 °F /  7.6 °C 30.03in /  1016.8hPa SW 11.0mph /  17.7km/h 15.0mph /  24.1km/h 29% 0.00in /  0mm meteobridge W/m2
16:24 81.1 °F /  27.3 °C 45.9 °F /  7.7 °C 30.02in /  1016.5hPa South 0.9mph /  1.4km/h 15.0mph /  24.1km/h 29% 0.00in /  0mm meteobridge W/m2
16:30 81.9 °F /  27.7 °C 46.4 °F /  8 °C 30.02in /  1016.5hPa WNW 2.9mph /  4.7km/h 16.0mph /  25.7km/h 29% 0.00in /  0mm meteobridge W/m2
16:32 81.9 °F /  27.7 °C 46.4 °F /  8 °C 30.02in /  1016.5hPa South 10.1mph /  16.3km/h 11.0mph /  17.7km/h 29% 0.00in /  0mm meteobridge W/m2
16:38 82.4 °F /  28 °C 46.9 °F /  8.3 °C 30.02in /  1016.5hPa South 6.0mph /  9.7km/h 12.0mph /  19.3km/h 29% 0.00in /  0mm meteobridge W/m2
16:45 83.1 °F /  28.4 °C 46.6 °F /  8.1 °C 30.01in /  1016.1hPa South 2.9mph /  4.7km/h 5.0mph /  8km/h 28% 0.00in /  0mm meteobridge W/m2
16:51 83.1 °F /  28.4 °C 45.7 °F /  7.6 °C 30.02in /  1016.5hPa SSE 4.0mph /  6.4km/h 10.0mph /  16.1km/h 27% 0.00in /  0mm meteobridge W/m2
16:57 82.6 °F /  28.1 °C 46.2 °F /  7.9 °C 30.02in /  1016.5hPa ESE 0.9mph /  1.4km/h 11.0mph /  17.7km/h 28% 0.00in /  0mm meteobridge W/m2
17:03 82.6 °F /  28.1 °C 46.2 °F /  7.9 °C 30.02in /  1016.5hPa SSE 2.9mph /  4.7km/h 3.0mph /  4.8km/h 28% 0.00in /  0mm meteobridge W/m2
17:09 82.6 °F /  28.1 °C 45.1 °F /  7.3 °C 30.02in /  1016.5hPa SSW 2.9mph /  4.7km/h 4.0mph /  6.4km/h 27% 0.00in /  0mm meteobridge W/m2
17:15 82.2 °F /  27.9 °C 45.9 °F /  7.7 °C 30.02in /  1016.5hPa WNW 2.0mph /  3.2km/h 3.0mph /  4.8km/h 28% 0.00in /  0mm meteobridge W/m2
17:21 82.0 °F /  27.8 °C 44.8 °F /  7.1 °C 30.02in /  1016.5hPa SW 4.0mph /  6.4km/h 5.0mph /  8km/h 27% 0.00in /  0mm meteobridge W/m2
17:28 82.0 °F /  27.8 °C 44.8 °F /  7.1 °C 30.02in /  1016.5hPa SSW 2.0mph /  3.2km/h 7.0mph /  11.3km/h 27% 0.00in /  0mm meteobridge W/m2
17:34 81.9 °F /  27.7 °C 44.6 °F /  7 °C 30.02in /  1016.5hPa SSE 4.9mph /  7.9km/h 5.0mph /  8km/h 27% 0.00in /  0mm meteobridge W/m2
17:40 81.1 °F /  27.3 °C 51.6 °F /  10.9 °C 30.02in /  1016.5hPa NE 16.1mph /  25.9km/h 16.1mph /  25.9km/h 36% 0.00in /  0mm meteobridge W/m2
17:46 77.9 °F /  25.5 °C 50.2 °F /  10.1 °C 30.03in /  1016.8hPa NE 4.9mph /  7.9km/h 12.0mph /  19.3km/h 38% 0.00in /  0mm meteobridge W/m2
17:54 76.6 °F /  24.8 °C 47.7 °F /  8.7 °C 30.03in /  1016.8hPa ENE 2.0mph /  3.2km/h 5.0mph /  8km/h 36% 0.00in /  0mm meteobridge W/m2
18:06 75.9 °F /  24.4 °C 49.8 °F /  9.9 °C 30.05in /  1017.5hPa SE 4.0mph /  6.4km/h 4.0mph /  6.4km/h 40% 0.00in /  0mm meteobridge W/m2
18:17 75.9 °F /  24.4 °C 49.8 °F /  9.9 °C 30.05in /  1017.5hPa SE 4.0mph /  6.4km/h -999.0mph /  -1607.7km/h 40% 0.00in /  0mm meteobridge W/m2
Regenstein, Windhoek, Namibia
Compliments of Weather Underground - 2.5 mb